sensor_id;sensor_type;location;lat;lon;timestamp;temperature;humidity
72128;DHT22;60000;51.030;7.024;2022-07-29T00:01:29;19.49;52.38
72128;DHT22;60000;51.030;7.024;2022-07-29T00:03:54;19.40;52.94
72128;DHT22;60000;51.030;7.024;2022-07-29T00:06:20;19.36;53.14
72128;DHT22;60000;51.030;7.024;2022-07-29T00:08:46;19.30;54.08
72128;DHT22;60000;51.030;7.024;2022-07-29T00:11:11;19.23;54.21
72128;DHT22;60000;51.030;7.024;2022-07-29T00:13:36;19.17;54.67
72128;DHT22;60000;51.030;7.024;2022-07-29T00:16:02;19.15;54.96
72128;DHT22;60000;51.030;7.024;2022-07-29T00:18:27;19.13;54.80
72128;DHT22;60000;51.030;7.024;2022-07-29T00:20:53;19.09;54.69
72128;DHT22;60000;51.030;7.024;2022-07-29T00:23:18;19.03;54.84
72128;DHT22;60000;51.030;7.024;2022-07-29T00:25:43;19.03;54.92
72128;DHT22;60000;51.030;7.024;2022-07-29T00:28:09;19.02;54.89
72128;DHT22;60000;51.030;7.024;2022-07-29T00:30:34;18.99;55.67
72128;DHT22;60000;51.030;7.024;2022-07-29T00:32:59;19.00;55.95
72128;DHT22;60000;51.030;7.024;2022-07-29T00:35:25;18.96;56.09
72128;DHT22;60000;51.030;7.024;2022-07-29T00:38:09;18.94;56.46
72128;DHT22;60000;51.030;7.024;2022-07-29T00:40:34;18.88;56.18
72128;DHT22;60000;51.030;7.024;2022-07-29T00:43:00;18.86;56.80
72128;DHT22;60000;51.030;7.024;2022-07-29T00:45:25;18.84;56.82
72128;DHT22;60000;51.030;7.024;2022-07-29T00:47:50;18.81;56.66
72128;DHT22;60000;51.030;7.024;2022-07-29T00:50:16;18.79;57.03
72128;DHT22;60000;51.030;7.024;2022-07-29T00:52:42;18.73;57.24
72128;DHT22;60000;51.030;7.024;2022-07-29T00:55:14;18.72;57.63
72128;DHT22;60000;51.030;7.024;2022-07-29T00:57:42;18.68;57.25
72128;DHT22;60000;51.030;7.024;2022-07-29T01:00:11;18.64;57.84
72128;DHT22;60000;51.030;7.024;2022-07-29T01:02:37;18.58;57.49
72128;DHT22;60000;51.030;7.024;2022-07-29T01:05:06;18.55;57.96
72128;DHT22;60000;51.030;7.024;2022-07-29T01:07:34;18.52;57.96
72128;DHT22;60000;51.030;7.024;2022-07-29T01:10:01;18.47;58.39
72128;DHT22;60000;51.030;7.024;2022-07-29T01:12:29;18.44;58.28
72128;DHT22;60000;51.030;7.024;2022-07-29T01:14:58;18.43;58.14
72128;DHT22;60000;51.030;7.024;2022-07-29T01:17:27;18.43;58.30
72128;DHT22;60000;51.030;7.024;2022-07-29T01:22:40;18.37;58.39
72128;DHT22;60000;51.030;7.024;2022-07-29T01:25:32;18.38;59.26
72128;DHT22;60000;51.030;7.024;2022-07-29T01:30:56;18.34;59.40
72128;DHT22;60000;51.030;7.024;2022-07-29T01:33:25;18.33;59.58
72128;DHT22;60000;51.030;7.024;2022-07-29T01:36:13;18.33;59.96
72128;DHT22;60000;51.030;7.024;2022-07-29T01:38:41;18.33;60.69
72128;DHT22;60000;51.030;7.024;2022-07-29T01:41:17;18.31;60.72
72128;DHT22;60000;51.030;7.024;2022-07-29T01:43:52;18.30;60.18
72128;DHT22;60000;51.030;7.024;2022-07-29T01:46:27;18.28;60.55
72128;DHT22;60000;51.030;7.024;2022-07-29T01:48:58;18.28;60.06
72128;DHT22;60000;51.030;7.024;2022-07-29T01:51:29;18.26;60.40
72128;DHT22;60000;51.030;7.024;2022-07-29T01:54:04;18.23;60.11
72128;DHT22;60000;51.030;7.024;2022-07-29T01:56:31;18.23;60.40
72128;DHT22;60000;51.030;7.024;2022-07-29T01:58:59;18.20;60.83
72128;DHT22;60000;51.030;7.024;2022-07-29T02:01:26;18.20;60.75
72128;DHT22;60000;51.030;7.024;2022-07-29T02:03:53;18.17;60.45
72128;DHT22;60000;51.030;7.024;2022-07-29T02:06:22;18.17;60.67
72128;DHT22;60000;51.030;7.024;2022-07-29T02:08:49;18.14;61.11
72128;DHT22;60000;51.030;7.024;2022-07-29T02:11:15;18.14;61.31
72128;DHT22;60000;51.030;7.024;2022-07-29T02:13:40;18.11;61.46
72128;DHT22;60000;51.030;7.024;2022-07-29T02:16:08;18.10;61.83
72128;DHT22;60000;51.030;7.024;2022-07-29T02:18:36;18.07;61.23
72128;DHT22;60000;51.030;7.024;2022-07-29T02:21:02;18.01;61.90
72128;DHT22;60000;51.030;7.024;2022-07-29T02:23:30;17.99;62.64
72128;DHT22;60000;51.030;7.024;2022-07-29T02:25:59;17.96;62.56
72128;DHT22;60000;51.030;7.024;2022-07-29T02:28:26;17.96;62.62
72128;DHT22;60000;51.030;7.024;2022-07-29T02:30:53;17.91;62.85
72128;DHT22;60000;51.030;7.024;2022-07-29T02:33:21;17.87;63.22
72128;DHT22;60000;51.030;7.024;2022-07-29T02:35:47;17.85;62.76
72128;DHT22;60000;51.030;7.024;2022-07-29T02:38:15;17.85;63.13
72128;DHT22;60000;51.030;7.024;2022-07-29T02:41:01;17.82;63.10
72128;DHT22;60000;51.030;7.024;2022-07-29T02:43:29;17.80;63.04
72128;DHT22;60000;51.030;7.024;2022-07-29T02:45:56;17.82;63.05
72128;DHT22;60000;51.030;7.024;2022-07-29T02:48:32;17.83;62.90
72128;DHT22;60000;51.030;7.024;2022-07-29T02:51:05;17.85;62.72
72128;DHT22;60000;51.030;7.024;2022-07-29T02:53:33;17.85;62.31
72128;DHT22;60000;51.030;7.024;2022-07-29T02:56:03;17.86;62.57
72128;DHT22;60000;51.030;7.024;2022-07-29T02:58:34;17.83;61.99
72128;DHT22;60000;51.030;7.024;2022-07-29T03:01:07;17.83;62.37
72128;DHT22;60000;51.030;7.024;2022-07-29T03:03:36;17.76;62.45
72128;DHT22;60000;51.030;7.024;2022-07-29T03:06:03;17.75;62.76
72128;DHT22;60000;51.030;7.024;2022-07-29T03:08:29;17.72;62.77
72128;DHT22;60000;51.030;7.024;2022-07-29T03:10:56;17.72;62.77
72128;DHT22;60000;51.030;7.024;2022-07-29T03:13:21;17.70;62.86
72128;DHT22;60000;51.030;7.024;2022-07-29T03:15:48;17.70;62.11
72128;DHT22;60000;51.030;7.024;2022-07-29T03:18:14;17.73;61.92
72128;DHT22;60000;51.030;7.024;2022-07-29T03:20:40;17.72;60.97
72128;DHT22;60000;51.030;7.024;2022-07-29T03:23:06;17.75;60.73
72128;DHT22;60000;51.030;7.024;2022-07-29T03:25:31;17.75;60.58
72128;DHT22;60000;51.030;7.024;2022-07-29T03:27:56;17.77;60.67
72128;DHT22;60000;51.030;7.024;2022-07-29T03:30:23;17.80;60.58
72128;DHT22;60000;51.030;7.024;2022-07-29T03:32:49;17.86;60.83
72128;DHT22;60000;51.030;7.024;2022-07-29T03:35:15;17.89;60.55
72128;DHT22;60000;51.030;7.024;2022-07-29T03:37:42;17.90;60.54
72128;DHT22;60000;51.030;7.024;2022-07-29T03:40:08;17.90;60.23
72128;DHT22;60000;51.030;7.024;2022-07-29T03:42:37;17.93;59.98
72128;DHT22;60000;51.030;7.024;2022-07-29T03:45:06;17.94;59.63
72128;DHT22;60000;51.030;7.024;2022-07-29T03:47:33;17.94;59.75
72128;DHT22;60000;51.030;7.024;2022-07-29T03:50:02;17.93;59.53
72128;DHT22;60000;51.030;7.024;2022-07-29T03:52:30;17.94;59.58
72128;DHT22;60000;51.030;7.024;2022-07-29T03:54:55;17.96;59.44
72128;DHT22;60000;51.030;7.024;2022-07-29T03:57:23;17.99;59.18
72128;DHT22;60000;51.030;7.024;2022-07-29T03:59:51;18.01;59.07
72128;DHT22;60000;51.030;7.024;2022-07-29T04:02:16;18.06;58.43
72128;DHT22;60000;51.030;7.024;2022-07-29T04:04:42;18.08;57.96
72128;DHT22;60000;51.030;7.024;2022-07-29T04:07:11;18.07;57.87
72128;DHT22;60000;51.030;7.024;2022-07-29T04:09:36;18.07;57.47
72128;DHT22;60000;51.030;7.024;2022-07-29T04:12:02;18.10;57.04
72128;DHT22;60000;51.030;7.024;2022-07-29T04:14:28;18.10;57.09
72128;DHT22;60000;51.030;7.024;2022-07-29T04:16:54;18.08;57.11
72128;DHT22;60000;51.030;7.024;2022-07-29T04:19:20;18.13;56.84
72128;DHT22;60000;51.030;7.024;2022-07-29T04:21:45;18.13;56.64
72128;DHT22;60000;51.030;7.024;2022-07-29T04:24:10;18.16;56.54
72128;DHT22;60000;51.030;7.024;2022-07-29T04:26:36;18.13;56.52
72128;DHT22;60000;51.030;7.024;2022-07-29T04:29:01;18.14;56.59
72128;DHT22;60000;51.030;7.024;2022-07-29T04:31:27;18.18;56.33
72128;DHT22;60000;51.030;7.024;2022-07-29T04:33:52;18.18;56.03
72128;DHT22;60000;51.030;7.024;2022-07-29T04:36:17;18.17;56.24
72128;DHT22;60000;51.030;7.024;2022-07-29T04:38:43;18.14;56.31
72128;DHT22;60000;51.030;7.024;2022-07-29T04:41:08;18.11;56.38
72128;DHT22;60000;51.030;7.024;2022-07-29T04:43:34;18.10;56.50
72128;DHT22;60000;51.030;7.024;2022-07-29T04:46:00;18.10;56.34
72128;DHT22;60000;51.030;7.024;2022-07-29T04:48:26;18.07;56.51
72128;DHT22;60000;51.030;7.024;2022-07-29T04:50:52;18.07;56.31
72128;DHT22;60000;51.030;7.024;2022-07-29T04:53:17;18.08;56.56
72128;DHT22;60000;51.030;7.024;2022-07-29T04:55:43;18.06;56.61
72128;DHT22;60000;51.030;7.024;2022-07-29T04:58:10;18.07;56.54
72128;DHT22;60000;51.030;7.024;2022-07-29T05:00:35;18.04;56.56
72128;DHT22;60000;51.030;7.024;2022-07-29T05:03:01;18.07;56.67
72128;DHT22;60000;51.030;7.024;2022-07-29T05:05:26;18.08;56.58
72128;DHT22;60000;51.030;7.024;2022-07-29T05:07:51;18.07;56.70
72128;DHT22;60000;51.030;7.024;2022-07-29T05:10:17;18.13;56.69
72128;DHT22;60000;51.030;7.024;2022-07-29T05:12:42;18.11;56.43
72128;DHT22;60000;51.030;7.024;2022-07-29T05:15:08;18.14;56.48
72128;DHT22;60000;51.030;7.024;2022-07-29T05:17:33;18.16;56.77
72128;DHT22;60000;51.030;7.024;2022-07-29T05:19:58;18.17;56.44
72128;DHT22;60000;51.030;7.024;2022-07-29T05:22:24;18.20;56.24
72128;DHT22;60000;51.030;7.024;2022-07-29T05:24:49;18.21;56.26
72128;DHT22;60000;51.030;7.024;2022-07-29T05:27:15;18.26;56.31
72128;DHT22;60000;51.030;7.024;2022-07-29T05:29:40;18.31;56.39
72128;DHT22;60000;51.030;7.024;2022-07-29T05:32:06;18.36;56.44
72128;DHT22;60000;51.030;7.024;2022-07-29T05:34:32;18.41;56.10
72128;DHT22;60000;51.030;7.024;2022-07-29T05:36:57;18.47;56.19
72128;DHT22;60000;51.030;7.024;2022-07-29T05:39:23;18.48;56.22
72128;DHT22;60000;51.030;7.024;2022-07-29T05:41:49;18.54;56.34
72128;DHT22;60000;51.030;7.024;2022-07-29T05:44:14;18.55;56.37
72128;DHT22;60000;51.030;7.024;2022-07-29T05:46:40;18.64;56.26
72128;DHT22;60000;51.030;7.024;2022-07-29T05:49:05;18.71;56.34
72128;DHT22;60000;51.030;7.024;2022-07-29T05:51:34;18.75;55.67
72128;DHT22;60000;51.030;7.024;2022-07-29T05:54:00;18.79;55.25
72128;DHT22;60000;51.030;7.024;2022-07-29T05:56:25;18.85;55.29
72128;DHT22;60000;51.030;7.024;2022-07-29T05:58:51;19.02;56.06
72128;DHT22;60000;51.030;7.024;2022-07-29T06:01:17;19.12;55.76
72128;DHT22;60000;51.030;7.024;2022-07-29T06:03:42;19.24;55.76
72128;DHT22;60000;51.030;7.024;2022-07-29T06:06:08;19.36;56.24
72128;DHT22;60000;51.030;7.024;2022-07-29T06:08:34;19.47;55.69
72128;DHT22;60000;51.030;7.024;2022-07-29T06:11:00;19.55;55.33
72128;DHT22;60000;51.030;7.024;2022-07-29T06:13:25;19.58;54.13
72128;DHT22;60000;51.030;7.024;2022-07-29T06:15:51;19.57;53.57
72128;DHT22;60000;51.030;7.024;2022-07-29T06:18:16;19.68;54.26
72128;DHT22;60000;51.030;7.024;2022-07-29T06:20:42;19.78;54.93
72128;DHT22;60000;51.030;7.024;2022-07-29T06:23:07;19.88;53.83
72128;DHT22;60000;51.030;7.024;2022-07-29T06:25:33;19.95;53.22
72128;DHT22;60000;51.030;7.024;2022-07-29T06:28:00;20.06;53.59
72128;DHT22;60000;51.030;7.024;2022-07-29T06:30:26;20.15;53.26
72128;DHT22;60000;51.030;7.024;2022-07-29T06:32:52;20.22;53.30
72128;DHT22;60000;51.030;7.024;2022-07-29T06:35:17;20.32;52.75
72128;DHT22;60000;51.030;7.024;2022-07-29T06:37:43;20.43;53.30
72128;DHT22;60000;51.030;7.024;2022-07-29T06:40:08;20.52;52.82
72128;DHT22;60000;51.030;7.024;2022-07-29T06:42:52;20.64;52.59
72128;DHT22;60000;51.030;7.024;2022-07-29T06:45:18;20.72;52.22
72128;DHT22;60000;51.030;7.024;2022-07-29T06:47:43;20.69;51.01
72128;DHT22;60000;51.030;7.024;2022-07-29T06:50:08;20.72;51.95
72128;DHT22;60000;51.030;7.024;2022-07-29T06:52:37;20.79;52.66
72128;DHT22;60000;51.030;7.024;2022-07-29T06:55:03;20.84;52.48
72128;DHT22;60000;51.030;7.024;2022-07-29T06:57:28;20.81;51.40
72128;DHT22;60000;51.030;7.024;2022-07-29T06:59:56;20.67;50.56
72128;DHT22;60000;51.030;7.024;2022-07-29T07:02:21;20.53;50.33
72128;DHT22;60000;51.030;7.024;2022-07-29T07:04:47;20.46;51.06
72128;DHT22;60000;51.030;7.024;2022-07-29T07:07:12;20.37;50.80
72128;DHT22;60000;51.030;7.024;2022-07-29T07:09:37;20.33;51.54
72128;DHT22;60000;51.030;7.024;2022-07-29T07:12:03;20.26;51.98
72128;DHT22;60000;51.030;7.024;2022-07-29T07:14:28;20.22;52.59
72128;DHT22;60000;51.030;7.024;2022-07-29T07:16:53;20.21;52.78
72128;DHT22;60000;51.030;7.024;2022-07-29T07:19:19;20.15;52.74
72128;DHT22;60000;51.030;7.024;2022-07-29T07:21:44;20.08;52.86
72128;DHT22;60000;51.030;7.024;2022-07-29T07:24:09;20.06;53.05
72128;DHT22;60000;51.030;7.024;2022-07-29T07:26:35;20.11;53.25
72128;DHT22;60000;51.030;7.024;2022-07-29T07:29:00;20.14;53.78
72128;DHT22;60000;51.030;7.024;2022-07-29T07:31:26;20.18;54.46
72128;DHT22;60000;51.030;7.024;2022-07-29T07:33:51;20.29;56.49
72128;DHT22;60000;51.030;7.024;2022-07-29T07:36:18;20.32;56.27
72128;DHT22;60000;51.030;7.024;2022-07-29T07:38:43;20.29;56.67
72128;DHT22;60000;51.030;7.024;2022-07-29T07:41:09;20.33;56.54
72128;DHT22;60000;51.030;7.024;2022-07-29T07:43:34;20.36;56.40
72128;DHT22;60000;51.030;7.024;2022-07-29T07:45:59;20.33;56.51
72128;DHT22;60000;51.030;7.024;2022-07-29T07:48:25;20.33;56.61
72128;DHT22;60000;51.030;7.024;2022-07-29T07:50:50;20.33;56.83
72128;DHT22;60000;51.030;7.024;2022-07-29T07:53:16;20.39;57.62
72128;DHT22;60000;51.030;7.024;2022-07-29T07:55:42;20.39;56.42
72128;DHT22;60000;51.030;7.024;2022-07-29T07:58:08;20.36;56.12
72128;DHT22;60000;51.030;7.024;2022-07-29T08:00:34;20.32;56.00
72128;DHT22;60000;51.030;7.024;2022-07-29T08:02:59;20.33;56.61
72128;DHT22;60000;51.030;7.024;2022-07-29T08:05:24;20.30;56.74
72128;DHT22;60000;51.030;7.024;2022-07-29T08:07:50;20.36;56.91
72128;DHT22;60000;51.030;7.024;2022-07-29T08:10:17;20.37;56.69
72128;DHT22;60000;51.030;7.024;2022-07-29T08:13:11;20.39;56.78
72128;DHT22;60000;51.030;7.024;2022-07-29T08:15:38;20.45;57.10
72128;DHT22;60000;51.030;7.024;2022-07-29T08:18:04;20.52;57.77
72128;DHT22;60000;51.030;7.024;2022-07-29T08:20:30;20.57;57.61
72128;DHT22;60000;51.030;7.024;2022-07-29T08:22:57;20.54;56.71
72128;DHT22;60000;51.030;7.024;2022-07-29T08:25:22;20.57;57.15
72128;DHT22;60000;51.030;7.024;2022-07-29T08:27:48;20.57;57.69
72128;DHT22;60000;51.030;7.024;2022-07-29T08:30:14;20.60;58.02
72128;DHT22;60000;51.030;7.024;2022-07-29T08:32:39;20.62;59.15
72128;DHT22;60000;51.030;7.024;2022-07-29T08:35:05;20.60;57.76
72128;DHT22;60000;51.030;7.024;2022-07-29T08:37:31;20.63;59.35
72128;DHT22;60000;51.030;7.024;2022-07-29T08:39:56;20.60;58.61
72128;DHT22;60000;51.030;7.024;2022-07-29T08:42:21;20.52;57.88
72128;DHT22;60000;51.030;7.024;2022-07-29T08:44:47;20.37;57.83
72128;DHT22;60000;51.030;7.024;2022-07-29T08:47:14;20.39;58.76
72128;DHT22;60000;51.030;7.024;2022-07-29T08:49:39;20.37;58.80
72128;DHT22;60000;51.030;7.024;2022-07-29T08:52:05;20.32;59.02
72128;DHT22;60000;51.030;7.024;2022-07-29T08:54:31;20.37;59.60
72128;DHT22;60000;51.030;7.024;2022-07-29T08:56:58;20.39;59.42
72128;DHT22;60000;51.030;7.024;2022-07-29T08:59:25;20.46;59.22
72128;DHT22;60000;51.030;7.024;2022-07-29T09:01:53;20.49;59.14
72128;DHT22;60000;51.030;7.024;2022-07-29T09:04:19;20.43;59.14
72128;DHT22;60000;51.030;7.024;2022-07-29T09:06:47;20.46;59.09
72128;DHT22;60000;51.030;7.024;2022-07-29T09:09:14;20.56;59.32
72128;DHT22;60000;51.030;7.024;2022-07-29T09:11:41;20.66;59.74
72128;DHT22;60000;51.030;7.024;2022-07-29T09:14:07;20.77;59.70
72128;DHT22;60000;51.030;7.024;2022-07-29T09:16:51;20.88;58.94
72128;DHT22;60000;51.030;7.024;2022-07-29T09:21:50;21.05;58.91
72128;DHT22;60000;51.030;7.024;2022-07-29T09:27:00;21.34;58.45
72128;DHT22;60000;51.030;7.024;2022-07-29T09:29:26;21.48;58.32
72128;DHT22;60000;51.030;7.024;2022-07-29T09:31:53;21.65;57.77
72128;DHT22;60000;51.030;7.024;2022-07-29T09:36:50;21.90;57.57
72128;DHT22;60000;51.030;7.024;2022-07-29T09:39:36;21.99;57.20
72128;DHT22;60000;51.030;7.024;2022-07-29T09:42:04;21.86;57.38
72128;DHT22;60000;51.030;7.024;2022-07-29T09:44:47;21.96;58.34
72128;DHT22;60000;51.030;7.024;2022-07-29T09:47:14;21.97;57.57
72128;DHT22;60000;51.030;7.024;2022-07-29T09:49:58;22.10;58.01
72128;DHT22;60000;51.030;7.024;2022-07-29T09:52:28;22.20;56.62
72128;DHT22;60000;51.030;7.024;2022-07-29T09:55:05;22.34;57.20
72128;DHT22;60000;51.030;7.024;2022-07-29T09:57:30;22.40;56.17
72128;DHT22;60000;51.030;7.024;2022-07-29T10:02:38;22.81;56.86
72128;DHT22;60000;51.030;7.024;2022-07-29T10:05:06;22.94;56.80
72128;DHT22;60000;51.030;7.024;2022-07-29T10:07:50;23.42;56.55
72128;DHT22;60000;51.030;7.024;2022-07-29T10:10:27;23.50;54.47
72128;DHT22;60000;51.030;7.024;2022-07-29T10:12:54;23.15;54.80
72128;DHT22;60000;51.030;7.024;2022-07-29T10:15:25;22.78;55.72
72128;DHT22;60000;51.030;7.024;2022-07-29T10:17:57;22.55;56.46
72128;DHT22;60000;51.030;7.024;2022-07-29T10:20:23;22.41;57.40
72128;DHT22;60000;51.030;7.024;2022-07-29T10:22:49;22.34;57.42
72128;DHT22;60000;51.030;7.024;2022-07-29T10:25:16;22.30;57.11
72128;DHT22;60000;51.030;7.024;2022-07-29T10:27:43;22.21;57.42
72128;DHT22;60000;51.030;7.024;2022-07-29T10:30:11;22.07;57.47
72128;DHT22;60000;51.030;7.024;2022-07-29T10:32:54;22.01;57.98
72128;DHT22;60000;51.030;7.024;2022-07-29T10:38:43;22.17;57.54
72128;DHT22;60000;51.030;7.024;2022-07-29T10:41:19;22.21;57.30
72128;DHT22;60000;51.030;7.024;2022-07-29T10:44:01;22.33;57.32
72128;DHT22;60000;51.030;7.024;2022-07-29T10:46:34;22.44;56.47
72128;DHT22;60000;51.030;7.024;2022-07-29T10:49:19;22.61;56.57
72128;DHT22;60000;51.030;7.024;2022-07-29T10:54:42;23.00;55.57
72128;DHT22;60000;51.030;7.024;2022-07-29T10:57:26;23.19;55.00
72128;DHT22;60000;51.030;7.024;2022-07-29T11:05:06;23.47;54.68
72128;DHT22;60000;51.030;7.024;2022-07-29T11:07:32;23.53;52.65
72128;DHT22;60000;51.030;7.024;2022-07-29T11:15:08;24.21;53.04
72128;DHT22;60000;51.030;7.024;2022-07-29T11:23:31;24.93;49.42
72128;DHT22;60000;51.030;7.024;2022-07-29T11:28:41;25.27;48.23
72128;DHT22;60000;51.030;7.024;2022-07-29T11:31:08;25.33;47.42
72128;DHT22;60000;51.030;7.024;2022-07-29T11:33:35;25.59;48.11
72128;DHT22;60000;51.030;7.024;2022-07-29T11:36:11;25.78;47.13
72128;DHT22;60000;51.030;7.024;2022-07-29T11:38:36;25.83;47.71
72128;DHT22;60000;51.030;7.024;2022-07-29T11:43:50;26.24;44.91
72128;DHT22;60000;51.030;7.024;2022-07-29T11:46:54;26.34;44.72
72128;DHT22;60000;51.030;7.024;2022-07-29T11:49:25;26.68;44.90
72128;DHT22;60000;51.030;7.024;2022-07-29T11:51:55;26.74;43.94
72128;DHT22;60000;51.030;7.024;2022-07-29T11:54:26;26.71;43.90
72128;DHT22;60000;51.030;7.024;2022-07-29T11:56:52;26.77;44.21
72128;DHT22;60000;51.030;7.024;2022-07-29T11:59:19;26.90;42.61
72128;DHT22;60000;51.030;7.024;2022-07-29T12:01:58;27.11;43.50
72128;DHT22;60000;51.030;7.024;2022-07-29T12:04:24;27.35;43.81
72128;DHT22;60000;51.030;7.024;2022-07-29T12:06:53;27.56;40.99
72128;DHT22;60000;51.030;7.024;2022-07-29T12:09:20;27.64;40.63
72128;DHT22;60000;51.030;7.024;2022-07-29T12:11:46;27.28;39.40
72128;DHT22;60000;51.030;7.024;2022-07-29T12:14:31;27.38;41.42
72128;DHT22;60000;51.030;7.024;2022-07-29T12:16:57;27.60;40.33
72128;DHT22;60000;51.030;7.024;2022-07-29T12:19:23;27.66;38.06
72128;DHT22;60000;51.030;7.024;2022-07-29T12:21:51;27.46;38.96
72128;DHT22;60000;51.030;7.024;2022-07-29T12:24:18;27.32;39.93
72128;DHT22;60000;51.030;7.024;2022-07-29T12:26:58;27.35;39.10
72128;DHT22;60000;51.030;7.024;2022-07-29T12:29:24;27.54;40.63
72128;DHT22;60000;51.030;7.024;2022-07-29T12:31:53;27.79;39.60
72128;DHT22;60000;51.030;7.024;2022-07-29T12:34:27;28.04;39.22
72128;DHT22;60000;51.030;7.024;2022-07-29T12:36:53;28.10;39.04
72128;DHT22;60000;51.030;7.024;2022-07-29T12:39:19;28.37;39.52
72128;DHT22;60000;51.030;7.024;2022-07-29T12:41:44;28.45;37.65
72128;DHT22;60000;51.030;7.024;2022-07-29T12:44:10;28.00;37.71
72128;DHT22;60000;51.030;7.024;2022-07-29T12:46:37;27.93;37.80
72128;DHT22;60000;51.030;7.024;2022-07-29T12:49:03;27.61;38.15
72128;DHT22;60000;51.030;7.024;2022-07-29T12:51:37;27.73;38.70
72128;DHT22;60000;51.030;7.024;2022-07-29T12:54:10;27.76;38.72
72128;DHT22;60000;51.030;7.024;2022-07-29T12:56:37;27.70;38.98
72128;DHT22;60000;51.030;7.024;2022-07-29T12:59:32;27.70;37.88
72128;DHT22;60000;51.030;7.024;2022-07-29T13:01:57;27.84;37.87
72128;DHT22;60000;51.030;7.024;2022-07-29T13:04:32;27.80;37.84
72128;DHT22;60000;51.030;7.024;2022-07-29T13:07:05;27.73;38.72
72128;DHT22;60000;51.030;7.024;2022-07-29T13:09:43;27.87;38.18
72128;DHT22;60000;51.030;7.024;2022-07-29T13:12:10;27.93;38.97
72128;DHT22;60000;51.030;7.024;2022-07-29T13:14:43;28.00;38.82
72128;DHT22;60000;51.030;7.024;2022-07-29T13:19:46;28.32;38.60
72128;DHT22;60000;51.030;7.024;2022-07-29T13:22:15;28.38;38.58
72128;DHT22;60000;51.030;7.024;2022-07-29T13:25:13;28.51;37.35
72128;DHT22;60000;51.030;7.024;2022-07-29T13:27:39;28.31;36.67
72128;DHT22;60000;51.030;7.024;2022-07-29T13:30:07;28.31;37.34
72128;DHT22;60000;51.030;7.024;2022-07-29T13:32:33;28.29;36.10
72128;DHT22;60000;51.030;7.024;2022-07-29T13:35:02;28.32;36.13
72128;DHT22;60000;51.030;7.024;2022-07-29T13:37:28;28.29;35.57
72128;DHT22;60000;51.030;7.024;2022-07-29T13:39:57;28.27;35.86
72128;DHT22;60000;51.030;7.024;2022-07-29T13:42:24;28.25;36.47
72128;DHT22;60000;51.030;7.024;2022-07-29T13:44:50;28.07;35.15
72128;DHT22;60000;51.030;7.024;2022-07-29T13:47:17;27.87;35.89
72128;DHT22;60000;51.030;7.024;2022-07-29T13:49:42;27.67;36.18
72128;DHT22;60000;51.030;7.024;2022-07-29T13:52:07;27.74;36.76
72128;DHT22;60000;51.030;7.024;2022-07-29T13:54:33;27.96;37.13
72128;DHT22;60000;51.030;7.024;2022-07-29T13:57:02;28.10;35.87
72128;DHT22;60000;51.030;7.024;2022-07-29T13:59:29;28.29;36.39
72128;DHT22;60000;51.030;7.024;2022-07-29T14:01:54;28.32;35.75
72128;DHT22;60000;51.030;7.024;2022-07-29T14:04:20;28.19;36.72
72128;DHT22;60000;51.030;7.024;2022-07-29T14:06:46;28.39;36.66
72128;DHT22;60000;51.030;7.024;2022-07-29T14:09:11;28.19;36.12
72128;DHT22;60000;51.030;7.024;2022-07-29T14:11:37;28.15;37.34
72128;DHT22;60000;51.030;7.024;2022-07-29T14:14:03;28.22;36.18
72128;DHT22;60000;51.030;7.024;2022-07-29T14:16:29;28.08;36.46
72128;DHT22;60000;51.030;7.024;2022-07-29T14:18:54;27.80;36.23
72128;DHT22;60000;51.030;7.024;2022-07-29T14:21:19;28.05;36.97
72128;DHT22;60000;51.030;7.024;2022-07-29T14:23:45;28.24;36.73
72128;DHT22;60000;51.030;7.024;2022-07-29T14:26:10;28.45;36.70
72128;DHT22;60000;51.030;7.024;2022-07-29T14:28:36;28.35;36.68
72128;DHT22;60000;51.030;7.024;2022-07-29T14:31:01;28.56;36.96
72128;DHT22;60000;51.030;7.024;2022-07-29T14:33:26;28.70;37.24
72128;DHT22;60000;51.030;7.024;2022-07-29T14:35:52;28.76;36.28
72128;DHT22;60000;51.030;7.024;2022-07-29T14:38:17;28.75;36.69
72128;DHT22;60000;51.030;7.024;2022-07-29T14:40:43;28.63;36.64
72128;DHT22;60000;51.030;7.024;2022-07-29T14:43:08;28.44;36.75
72128;DHT22;60000;51.030;7.024;2022-07-29T14:45:33;28.19;37.43
72128;DHT22;60000;51.030;7.024;2022-07-29T14:47:59;28.04;37.73
72128;DHT22;60000;51.030;7.024;2022-07-29T14:50:25;28.02;38.08
72128;DHT22;60000;51.030;7.024;2022-07-29T14:52:51;28.07;38.10
72128;DHT22;60000;51.030;7.024;2022-07-29T14:55:17;28.08;37.63
72128;DHT22;60000;51.030;7.024;2022-07-29T14:57:42;28.21;37.45
72128;DHT22;60000;51.030;7.024;2022-07-29T15:00:09;28.21;36.81
72128;DHT22;60000;51.030;7.024;2022-07-29T15:02:35;28.02;37.75
72128;DHT22;60000;51.030;7.024;2022-07-29T15:05:00;27.91;38.16
72128;DHT22;60000;51.030;7.024;2022-07-29T15:07:26;27.90;38.20
72128;DHT22;60000;51.030;7.024;2022-07-29T15:09:51;27.98;37.90
72128;DHT22;60000;51.030;7.024;2022-07-29T15:12:17;28.11;37.30
72128;DHT22;60000;51.030;7.024;2022-07-29T15:14:42;28.04;36.54
72128;DHT22;60000;51.030;7.024;2022-07-29T15:17:07;27.80;37.41
72128;DHT22;60000;51.030;7.024;2022-07-29T15:19:33;27.86;38.48
72128;DHT22;60000;51.030;7.024;2022-07-29T15:21:59;27.81;38.61
72128;DHT22;60000;51.030;7.024;2022-07-29T15:24:24;27.64;38.72
72128;DHT22;60000;51.030;7.024;2022-07-29T15:26:49;27.83;39.63
72128;DHT22;60000;51.030;7.024;2022-07-29T15:29:15;27.98;39.05
72128;DHT22;60000;51.030;7.024;2022-07-29T15:31:41;28.10;38.41
72128;DHT22;60000;51.030;7.024;2022-07-29T15:34:07;28.05;38.64
72128;DHT22;60000;51.030;7.024;2022-07-29T15:36:32;27.97;37.80
72128;DHT22;60000;51.030;7.024;2022-07-29T15:38:58;27.80;37.75
72128;DHT22;60000;51.030;7.024;2022-07-29T15:41:23;27.56;38.58
72128;DHT22;60000;51.030;7.024;2022-07-29T15:43:48;27.40;38.37
72128;DHT22;60000;51.030;7.024;2022-07-29T15:46:17;27.15;38.98
72128;DHT22;60000;51.030;7.024;2022-07-29T15:49:02;26.92;39.71
72128;DHT22;60000;51.030;7.024;2022-07-29T15:51:28;27.03;39.85
72128;DHT22;60000;51.030;7.024;2022-07-29T15:53:54;27.18;39.36
72128;DHT22;60000;51.030;7.024;2022-07-29T15:56:19;27.19;38.89
72128;DHT22;60000;51.030;7.024;2022-07-29T15:58:45;27.13;38.73
72128;DHT22;60000;51.030;7.024;2022-07-29T16:01:10;27.09;39.00
72128;DHT22;60000;51.030;7.024;2022-07-29T16:03:36;27.11;38.82
72128;DHT22;60000;51.030;7.024;2022-07-29T16:06:01;26.94;39.12
72128;DHT22;60000;51.030;7.024;2022-07-29T16:08:26;26.91;39.75
72128;DHT22;60000;51.030;7.024;2022-07-29T16:10:52;26.90;39.54
72128;DHT22;60000;51.030;7.024;2022-07-29T16:13:17;26.96;38.87
72128;DHT22;60000;51.030;7.024;2022-07-29T16:15:43;26.92;38.07
72128;DHT22;60000;51.030;7.024;2022-07-29T16:18:08;26.94;37.96
72128;DHT22;60000;51.030;7.024;2022-07-29T16:20:37;26.91;38.16